createdAt,value
2019-05-10T00:02:18.387Z,56.50
2019-05-10T00:06:54.239Z,56.40
2019-05-10T00:11:34.963Z,56.40
2019-05-10T00:15:53.536Z,56.60
2019-05-10T00:20:11.705Z,56.80
2019-05-10T00:24:29.902Z,57.00
2019-05-10T00:28:48.132Z,57.20
2019-05-10T00:33:06.617Z,57.20
2019-05-10T00:37:24.817Z,57.40
2019-05-10T00:41:43.091Z,57.40
2019-05-10T00:46:01.314Z,57.30
2019-05-10T00:50:19.778Z,57.30
2019-05-10T00:54:37.994Z,57.30
2019-05-10T00:58:57.353Z,57.30
2019-05-10T01:03:15.769Z,57.30
2019-05-10T01:07:33.906Z,57.50
2019-05-10T01:11:52.373Z,57.30
2019-05-10T01:16:10.577Z,57.40
2019-05-10T01:20:29.088Z,57.40
2019-05-10T01:24:47.296Z,57.40
2019-05-10T01:29:05.457Z,57.30
2019-05-10T01:33:23.639Z,57.50
2019-05-10T01:37:42.113Z,57.50
2019-05-10T01:42:00.376Z,57.40
2019-05-10T01:46:19.136Z,57.50
2019-05-10T01:50:37.383Z,57.50
2019-05-10T01:54:55.599Z,57.60
2019-05-10T01:59:14.041Z,57.60
2019-05-10T02:03:32.117Z,58.20
2019-05-10T02:07:50.316Z,57.50
2019-05-10T02:12:08.777Z,57.30
2019-05-10T02:16:26.944Z,57.00
2019-05-10T02:20:45.066Z,56.90
2019-05-10T02:25:03.295Z,57.00
2019-05-10T02:29:21.427Z,57.00
2019-05-10T02:33:39.621Z,56.90
2019-05-10T02:37:57.618Z,56.80
2019-05-10T02:42:15.785Z,56.80
2019-05-10T02:46:33.949Z,57.20
2019-05-10T02:50:52.578Z,57.20
2019-05-10T02:55:11.341Z,57.30
2019-05-10T02:59:30.873Z,57.50
2019-05-10T03:03:53.803Z,57.50
2019-05-10T03:08:16.114Z,57.50
2019-05-10T03:12:35.715Z,57.30
2019-05-10T03:16:54.270Z,57.10
2019-05-10T03:21:15.873Z,57.00
2019-05-10T03:25:34.019Z,56.80
2019-05-10T03:29:52.291Z,56.80
2019-05-10T03:34:10.766Z,56.80
2019-05-10T03:38:29.471Z,56.80
2019-05-10T03:42:47.605Z,56.80
2019-05-10T03:47:05.847Z,57.10
2019-05-10T03:51:23.983Z,57.50
2019-05-10T03:55:42.478Z,57.80
2019-05-10T04:00:01.076Z,58.00
2019-05-10T04:04:20.214Z,58.20
2019-05-10T04:08:38.289Z,58.60
2019-05-10T04:12:56.483Z,58.60
2019-05-10T04:17:15.091Z,58.60
2019-05-10T04:21:33.537Z,58.80
2019-05-10T04:25:51.679Z,58.80
2019-05-10T04:30:10.523Z,58.90
2019-05-10T04:34:28.613Z,58.80
2019-05-10T04:38:46.836Z,58.60
2019-05-10T04:43:05.030Z,58.50
2019-05-10T04:47:23.227Z,58.40
2019-05-10T04:51:42.284Z,58.40
2019-05-10T04:56:00.456Z,58.70
2019-05-10T05:00:18.936Z,58.60
2019-05-10T05:04:37.115Z,58.60
2019-05-10T05:08:55.681Z,58.70
2019-05-10T05:13:14.147Z,58.90
2019-05-10T05:17:33.254Z,59.00
2019-05-10T05:21:51.370Z,59.10
2019-05-10T05:26:09.524Z,59.20
2019-05-10T05:30:27.719Z,59.10
2019-05-10T05:34:45.868Z,59.60
2019-05-10T05:39:05.752Z,60.80
2019-05-10T05:43:24.025Z,61.70
2019-05-10T05:47:44.868Z,65.70
2019-05-10T05:52:02.080Z,68.80
2019-05-10T05:56:20.799Z,69.10
2019-05-10T06:00:44.544Z,68.90
2019-05-10T06:04:59.047Z,68.70
2019-05-10T06:09:17.214Z,69.30
2019-05-10T06:13:35.795Z,67.50
2019-05-10T06:17:57.034Z,63.10
2019-05-10T06:22:13.723Z,59.30
2019-05-10T06:26:31.870Z,57.40
2019-05-10T06:30:50.048Z,55.50
2019-05-10T06:35:14.137Z,54.70
2019-05-10T06:39:29.042Z,54.80
2019-05-10T06:43:51.500Z,54.60
2019-05-10T06:48:07.611Z,54.70
2019-05-10T06:52:27.686Z,55.60
2019-05-10T06:56:46.026Z,56.20
2019-05-10T07:01:04.450Z,56.30
2019-05-10T07:05:22.602Z,56.40
2019-05-10T07:10:01.069Z,56.70
2019-05-10T07:14:00.705Z,56.90
2019-05-10T07:18:22.659Z,55.80
2019-05-10T07:22:39.242Z,55.30
2019-05-10T07:27:02.394Z,54.70
2019-05-10T07:31:21.167Z,54.50
2019-05-10T07:35:38.963Z,54.40
2019-05-10T07:39:57.680Z,54.20
2019-05-10T07:44:16.225Z,54.30
2019-05-10T07:48:34.694Z,54.40
2019-05-10T07:52:52.945Z,54.50
2019-05-10T07:57:11.117Z,54.90
2019-05-10T08:01:32.776Z,54.70
2019-05-10T08:05:55.071Z,55.10
2019-05-10T08:10:09.753Z,55.60
2019-05-10T08:14:29.085Z,56.10
2019-05-10T08:18:49.754Z,56.30
2019-05-10T08:23:08.729Z,57.00
2019-05-10T08:27:27.661Z,57.60
2019-05-10T08:31:52.800Z,60.90
2019-05-10T08:36:06.326Z,63.70
2019-05-10T08:40:30.455Z,63.10
2019-05-10T08:44:44.905Z,59.60
2019-05-10T08:49:03.241Z,58.00
2019-05-10T08:53:23.335Z,59.40
2019-05-10T08:57:49.243Z,57.80
2019-05-10T09:02:04.688Z,57.60
2019-05-10T09:06:23.191Z,51.30
2019-05-10T09:10:42.258Z,50.30
2019-05-10T09:15:10.325Z,49.00
2019-05-10T09:19:37.487Z,47.20
2019-05-10T09:23:52.784Z,47.30
2019-05-10T09:28:11.601Z,47.30
2019-05-10T09:32:32.818Z,47.60
2019-05-10T09:36:49.905Z,49.10
2019-05-10T09:41:08.861Z,49.70
2019-05-10T09:45:27.049Z,49.60
2019-05-10T09:49:54.059Z,49.30
2019-05-10T09:54:07.729Z,49.40
2019-05-10T09:58:28.045Z,48.60
2019-05-10T10:02:47.792Z,49.80
2019-05-10T10:07:05.197Z,49.80
2019-05-10T10:11:23.630Z,51.00
2019-05-10T10:15:41.702Z,51.00
2019-05-10T10:20:00.447Z,51.60
2019-05-10T10:24:20.282Z,51.20
2019-05-10T10:28:39.827Z,50.80
2019-05-10T10:32:58.629Z,48.60
2019-05-10T10:37:22.214Z,48.10
2019-05-10T10:41:37.344Z,46.60
2019-05-10T10:45:57.402Z,46.00
2019-05-10T10:50:17.245Z,45.60
2019-05-10T10:54:39.288Z,44.90
2019-05-10T10:58:58.060Z,45.00
2019-05-10T11:03:16.521Z,45.20
2019-05-10T11:07:38.094Z,45.80
2019-05-10T11:11:54.598Z,46.90
2019-05-10T11:16:15.543Z,48.90
2019-05-10T11:20:34.013Z,51.30
2019-05-10T11:25:03.012Z,53.30
2019-05-10T11:29:13.920Z,57.10
2019-05-10T11:33:33.610Z,59.20
2019-05-10T11:37:52.582Z,59.90
2019-05-10T11:42:11.468Z,60.60
2019-05-10T11:46:31.117Z,62.60
2019-05-10T11:50:51.371Z,65.50
2019-05-10T11:55:11.417Z,67.10
2019-05-10T12:03:50.091Z,61.00
2019-05-10T12:08:08.645Z,59.30
2019-05-10T12:12:45.013Z,58.70
2019-05-10T12:16:46.756Z,58.60
2019-05-10T12:21:09.561Z,58.00
2019-05-10T12:25:42.009Z,56.80
2019-05-10T12:26:15.903Z,64.10
2019-05-10T12:29:46.519Z,56.00
2019-05-10T12:34:12.794Z,55.30
2019-05-10T12:38:29.838Z,54.90
2019-05-10T12:42:48.971Z,54.90
2019-05-10T12:47:07.395Z,55.90
2019-05-10T12:51:25.849Z,56.40
2019-05-10T12:55:44.338Z,56.20
2019-05-10T13:00:06.821Z,57.70
2019-05-10T13:04:27.575Z,56.90
2019-05-10T13:08:43.121Z,55.70
2019-05-10T13:13:01.295Z,54.20
2019-05-10T13:17:19.654Z,54.00
2019-05-10T13:21:38.742Z,53.70
2019-05-10T13:25:56.909Z,52.70
2019-05-10T13:30:15.809Z,52.40
2019-05-10T13:34:34.949Z,52.30
2019-05-10T13:38:54.606Z,51.80
2019-05-10T13:43:17.232Z,51.80
2019-05-10T13:47:32.930Z,52.30
2019-05-10T13:51:51.117Z,52.40
2019-05-10T13:56:09.352Z,53.00
2019-05-10T14:00:32.986Z,53.50
2019-05-10T14:04:47.468Z,54.10
2019-05-10T14:09:07.429Z,54.70
2019-05-10T14:13:25.884Z,54.60
2019-05-10T14:17:44.397Z,54.90
2019-05-10T14:22:02.561Z,55.40
2019-05-10T14:26:20.815Z,56.40
2019-05-10T14:30:39.091Z,57.30
2019-05-10T14:34:58.740Z,56.90
2019-05-10T14:39:16.998Z,56.60
2019-05-10T14:43:35.560Z,57.00
2019-05-10T14:47:53.971Z,56.50
2019-05-10T14:52:12.470Z,56.90
2019-05-10T14:56:30.834Z,57.00
2019-05-10T15:00:48.937Z,57.00
2019-05-10T15:05:15.058Z,56.90
2019-05-10T15:09:27.487Z,57.00
2019-05-10T15:13:45.642Z,56.60
2019-05-10T15:18:04.175Z,56.30
2019-05-10T15:22:23.146Z,56.00
2019-05-10T15:26:44.029Z,56.00
2019-05-10T15:31:01.992Z,56.20
2019-05-10T15:35:20.209Z,55.80
2019-05-10T15:39:38.460Z,55.40
2019-05-10T15:43:57.003Z,55.00
2019-05-10T15:48:15.554Z,54.60
2019-05-10T15:52:34.097Z,54.30
2019-05-10T15:56:55.589Z,54.20
2019-05-10T16:01:14.594Z,54.10
2019-05-10T16:05:42.993Z,54.20
2019-05-10T16:09:54.803Z,54.20
2019-05-10T16:14:12.740Z,54.20
2019-05-10T16:18:33.449Z,54.40
2019-05-10T16:22:51.461Z,54.70
2019-05-10T16:27:09.532Z,54.90
2019-05-10T16:31:27.645Z,54.80
2019-05-10T16:35:49.678Z,54.80
2019-05-10T16:40:06.054Z,54.80
2019-05-10T16:44:24.612Z,54.90
2019-05-10T16:48:45.338Z,55.10
2019-05-10T16:53:05.917Z,55.20
2019-05-10T16:57:31.920Z,54.90
2019-05-10T17:01:49.187Z,54.60
2019-05-10T17:06:07.554Z,54.30
2019-05-10T17:10:27.004Z,54.20
2019-05-10T17:14:50.443Z,54.00
2019-05-10T17:19:06.213Z,53.80
2019-05-10T17:23:25.133Z,53.60
2019-05-10T17:27:43.427Z,53.50
2019-05-10T17:32:01.830Z,53.40
2019-05-10T17:36:21.439Z,53.30
2019-05-10T17:40:42.178Z,53.50
2019-05-10T17:45:01.691Z,53.70
2019-05-10T17:49:20.542Z,53.80
2019-05-10T17:53:39.012Z,53.80
2019-05-10T17:57:57.133Z,53.90
2019-05-10T18:02:15.384Z,53.70
2019-05-10T18:06:33.985Z,53.80
2019-05-10T18:10:57.170Z,53.60
2019-05-10T18:15:13.097Z,53.60
2019-05-10T18:19:31.013Z,53.50
2019-05-10T18:23:52.698Z,53.40
2019-05-10T18:28:10.620Z,53.30
2019-05-10T18:32:35.848Z,53.10
2019-05-10T18:36:52.467Z,53.00
2019-05-10T18:41:11.869Z,52.80
2019-05-10T18:45:30.233Z,52.90
2019-05-10T18:49:48.442Z,52.90
2019-05-10T18:54:06.716Z,53.00
2019-05-10T18:58:29.002Z,53.00
2019-05-10T19:02:49.675Z,53.00
2019-05-10T19:07:09.716Z,53.00
2019-05-10T19:11:32.768Z,53.00
2019-05-10T19:15:52.947Z,53.10
2019-05-10T19:20:09.623Z,53.20
2019-05-10T19:24:30.332Z,53.40
2019-05-10T19:28:49.117Z,53.50
2019-05-10T19:33:07.368Z,53.70
2019-05-10T19:37:31.479Z,53.70
2019-05-10T19:41:46.033Z,53.90
2019-05-10T19:46:04.444Z,53.90
2019-05-10T19:50:30.779Z,54.00
2019-05-10T19:54:42.970Z,54.20
2019-05-10T19:59:05.612Z,54.00
2019-05-10T20:03:21.940Z,53.90
2019-05-10T20:07:45.875Z,54.00
2019-05-10T20:12:00.381Z,54.10
2019-05-10T20:16:19.019Z,54.10
2019-05-10T20:20:37.158Z,54.20
2019-05-10T20:24:55.393Z,54.30
2019-05-10T20:29:13.990Z,54.30
2019-05-10T20:33:32.912Z,54.30
2019-05-10T20:38:01.368Z,54.50
2019-05-10T20:42:11.411Z,55.00
2019-05-10T20:46:30.028Z,54.40
2019-05-10T20:50:48.678Z,54.50
2019-05-10T20:55:07.163Z,54.50
2019-05-10T20:59:25.389Z,54.40
2019-05-10T21:03:44.033Z,54.50
2019-05-10T21:08:15.977Z,54.50
2019-05-10T21:12:22.979Z,54.60
2019-05-10T21:16:41.168Z,54.70
2019-05-10T21:20:59.249Z,54.70
2019-05-10T21:25:17.795Z,54.80
2019-05-10T21:29:36.215Z,54.90
2019-05-10T21:34:08.685Z,54.80
2019-05-10T21:38:14.936Z,54.80
2019-05-10T21:42:33.485Z,54.90
2019-05-10T21:46:53.814Z,55.00
2019-05-10T21:51:12.034Z,54.90
2019-05-10T21:55:30.749Z,54.80
2019-05-10T21:59:49.010Z,54.70
2019-05-10T22:04:07.382Z,54.90
2019-05-10T22:08:25.966Z,54.80
2019-05-10T22:12:44.095Z,54.80
2019-05-10T22:17:03.009Z,54.90
2019-05-10T22:21:21.015Z,54.90
2019-05-10T22:25:40.099Z,54.90
2019-05-10T22:29:58.587Z,55.20
2019-05-10T22:34:16.691Z,55.20
2019-05-10T22:38:35.104Z,55.20
2019-05-10T22:42:53.892Z,55.20
2019-05-10T22:47:11.943Z,55.10
2019-05-10T22:51:30.397Z,55.30
2019-05-10T22:55:48.574Z,55.60
2019-05-10T23:00:08.782Z,55.90
2019-05-10T23:04:28.955Z,56.30
2019-05-10T23:08:47.720Z,56.30
2019-05-10T23:13:06.727Z,56.50
2019-05-10T23:17:24.947Z,56.50
2019-05-10T23:21:44.067Z,56.60
2019-05-10T23:26:03.223Z,57.40
2019-05-10T23:30:21.295Z,56.70
2019-05-10T23:34:41.423Z,56.70
2019-05-10T23:38:59.990Z,56.80
2019-05-10T23:43:18.153Z,57.10
2019-05-10T23:47:36.238Z,57.30
2019-05-10T23:51:54.413Z,57.40
2019-05-10T23:56:12.429Z,57.40
